sensor_id;sensor_type;location;lat;lon;timestamp;P1;durP1;ratioP1;P2;durP2;ratioP2
75038;SDS011;63609;49.992;14.512;2022-11-20T00:00:22;49.03;;;21.25;;
75038;SDS011;63609;49.992;14.512;2022-11-20T00:02:48;68.65;;;25.88;;
75038;SDS011;63609;49.992;14.512;2022-11-20T00:05:15;47.28;;;21.77;;
75038;SDS011;63609;49.992;14.512;2022-11-20T00:07:43;50.67;;;22.85;;
75038;SDS011;63609;49.992;14.512;2022-11-20T00:10:10;54.72;;;21.60;;
75038;SDS011;63609;49.992;14.512;2022-11-20T00:15:03;42.72;;;17.77;;
75038;SDS011;63609;49.992;14.512;2022-11-20T00:17:30;46.70;;;18.75;;
75038;SDS011;63609;49.992;14.512;2022-11-20T00:19:57;49.45;;;20.83;;
75038;SDS011;63609;49.992;14.512;2022-11-20T00:22:24;56.28;;;22.15;;
75038;SDS011;63609;49.992;14.512;2022-11-20T00:24:50;52.85;;;19.95;;
75038;SDS011;63609;49.992;14.512;2022-11-20T00:27:18;46.92;;;20.90;;
75038;SDS011;63609;49.992;14.512;2022-11-20T00:29:45;60.33;;;24.67;;
75038;SDS011;63609;49.992;14.512;2022-11-20T00:32:11;65.10;;;25.40;;
75038;SDS011;63609;49.992;14.512;2022-11-20T00:34:38;60.63;;;25.17;;
75038;SDS011;63609;49.992;14.512;2022-11-20T00:37:05;71.75;;;26.67;;
75038;SDS011;63609;49.992;14.512;2022-11-20T00:39:32;68.65;;;28.55;;
75038;SDS011;63609;49.992;14.512;2022-11-20T00:41:59;72.93;;;28.98;;
75038;SDS011;63609;49.992;14.512;2022-11-20T00:44:26;78.57;;;32.80;;
75038;SDS011;63609;49.992;14.512;2022-11-20T00:46:52;75.57;;;30.85;;
75038;SDS011;63609;49.992;14.512;2022-11-20T00:49:19;66.30;;;26.00;;
75038;SDS011;63609;49.992;14.512;2022-11-20T00:54:13;55.58;;;20.98;;
75038;SDS011;63609;49.992;14.512;2022-11-20T00:56:40;58.95;;;23.35;;
75038;SDS011;63609;49.992;14.512;2022-11-20T00:59:08;58.03;;;24.20;;
75038;SDS011;63609;49.992;14.512;2022-11-20T01:01:35;57.78;;;22.40;;
75038;SDS011;63609;49.992;14.512;2022-11-20T01:04:02;58.17;;;22.95;;
75038;SDS011;63609;49.992;14.512;2022-11-20T01:06:30;63.13;;;24.20;;
75038;SDS011;63609;49.992;14.512;2022-11-20T01:09:00;51.38;;;20.95;;
75038;SDS011;63609;49.992;14.512;2022-11-20T01:11:32;57.38;;;21.05;;
75038;SDS011;63609;49.992;14.512;2022-11-20T01:14:02;50.28;;;19.52;;
75038;SDS011;63609;49.992;14.512;2022-11-20T01:16:31;47.38;;;20.23;;
75038;SDS011;63609;49.992;14.512;2022-11-20T01:19:00;47.10;;;21.50;;
75038;SDS011;63609;49.992;14.512;2022-11-20T01:21:32;58.58;;;21.58;;
75038;SDS011;63609;49.992;14.512;2022-11-20T01:26:29;40.58;;;17.02;;
75038;SDS011;63609;49.992;14.512;2022-11-20T01:28:58;45.03;;;18.15;;
75038;SDS011;63609;49.992;14.512;2022-11-20T01:31:27;54.97;;;22.05;;
75038;SDS011;63609;49.992;14.512;2022-11-20T01:34:00;43.45;;;19.75;;
75038;SDS011;63609;49.992;14.512;2022-11-20T01:36:29;43.67;;;18.85;;
75038;SDS011;63609;49.992;14.512;2022-11-20T01:38:58;48.53;;;19.35;;
75038;SDS011;63609;49.992;14.512;2022-11-20T01:41:28;42.22;;;21.05;;
75038;SDS011;63609;49.992;14.512;2022-11-20T01:44:15;38.40;;;16.00;;
75038;SDS011;63609;49.992;14.512;2022-11-20T01:46:55;48.85;;;19.52;;
75038;SDS011;63609;49.992;14.512;2022-11-20T01:49:24;47.55;;;18.63;;
75038;SDS011;63609;49.992;14.512;2022-11-20T01:54:34;45.22;;;19.55;;
75038;SDS011;63609;49.992;14.512;2022-11-20T01:57:06;45.50;;;17.77;;
75038;SDS011;63609;49.992;14.512;2022-11-20T01:59:37;47.00;;;18.70;;
75038;SDS011;63609;49.992;14.512;2022-11-20T02:02:08;47.83;;;19.33;;
75038;SDS011;63609;49.992;14.512;2022-11-20T02:04:35;50.88;;;20.88;;
75038;SDS011;63609;49.992;14.512;2022-11-20T02:07:05;46.28;;;18.88;;
75038;SDS011;63609;49.992;14.512;2022-11-20T02:11:58;44.80;;;18.27;;
75038;SDS011;63609;49.992;14.512;2022-11-20T02:14:25;47.65;;;18.90;;
75038;SDS011;63609;49.992;14.512;2022-11-20T02:16:52;49.28;;;18.98;;
75038;SDS011;63609;49.992;14.512;2022-11-20T02:19:26;56.65;;;22.25;;
75038;SDS011;63609;49.992;14.512;2022-11-20T02:24:22;54.13;;;22.65;;
75038;SDS011;63609;49.992;14.512;2022-11-20T02:26:50;53.53;;;19.95;;
75038;SDS011;63609;49.992;14.512;2022-11-20T02:29:28;52.78;;;20.17;;
75038;SDS011;63609;49.992;14.512;2022-11-20T02:31:56;51.55;;;21.25;;
75038;SDS011;63609;49.992;14.512;2022-11-20T02:34:25;55.00;;;22.20;;
75038;SDS011;63609;49.992;14.512;2022-11-20T02:36:51;55.33;;;22.63;;
75038;SDS011;63609;49.992;14.512;2022-11-20T02:39:19;51.92;;;18.92;;
75038;SDS011;63609;49.992;14.512;2022-11-20T02:41:48;52.95;;;20.98;;
75038;SDS011;63609;49.992;14.512;2022-11-20T02:44:15;48.28;;;20.58;;
75038;SDS011;63609;49.992;14.512;2022-11-20T02:49:08;43.97;;;18.45;;
75038;SDS011;63609;49.992;14.512;2022-11-20T02:51:35;49.13;;;20.40;;
75038;SDS011;63609;49.992;14.512;2022-11-20T02:54:02;54.47;;;21.15;;
75038;SDS011;63609;49.992;14.512;2022-11-20T02:56:29;54.33;;;21.67;;
75038;SDS011;63609;49.992;14.512;2022-11-20T02:58:57;51.60;;;21.45;;
75038;SDS011;63609;49.992;14.512;2022-11-20T03:01:26;54.13;;;21.30;;
75038;SDS011;63609;49.992;14.512;2022-11-20T03:03:53;54.38;;;22.63;;
75038;SDS011;63609;49.992;14.512;2022-11-20T03:06:21;47.08;;;19.98;;
75038;SDS011;63609;49.992;14.512;2022-11-20T03:11:14;41.70;;;17.05;;
75038;SDS011;63609;49.992;14.512;2022-11-20T03:16:18;43.20;;;16.35;;
75038;SDS011;63609;49.992;14.512;2022-11-20T03:18:47;47.20;;;18.88;;
75038;SDS011;63609;49.992;14.512;2022-11-20T03:21:14;54.33;;;21.17;;
75038;SDS011;63609;49.992;14.512;2022-11-20T03:23:43;48.00;;;19.95;;
75038;SDS011;63609;49.992;14.512;2022-11-20T03:26:14;48.58;;;19.23;;
75038;SDS011;63609;49.992;14.512;2022-11-20T03:28:46;47.50;;;20.02;;
75038;SDS011;63609;49.992;14.512;2022-11-20T03:31:19;44.47;;;20.33;;
75038;SDS011;63609;49.992;14.512;2022-11-20T03:33:48;48.10;;;18.52;;
75038;SDS011;63609;49.992;14.512;2022-11-20T03:36:15;55.70;;;20.90;;
75038;SDS011;63609;49.992;14.512;2022-11-20T03:38:43;48.30;;;20.17;;
75038;SDS011;63609;49.992;14.512;2022-11-20T03:41:11;49.17;;;20.95;;
75038;SDS011;63609;49.992;14.512;2022-11-20T03:43:39;48.72;;;19.85;;
75038;SDS011;63609;49.992;14.512;2022-11-20T03:46:06;50.05;;;20.17;;
75038;SDS011;63609;49.992;14.512;2022-11-20T03:48:33;47.00;;;21.05;;
75038;SDS011;63609;49.992;14.512;2022-11-20T03:53:38;46.50;;;19.90;;
75038;SDS011;63609;49.992;14.512;2022-11-20T03:56:15;56.03;;;20.80;;
75038;SDS011;63609;49.992;14.512;2022-11-20T03:58:43;49.08;;;20.35;;
75038;SDS011;63609;49.992;14.512;2022-11-20T04:03:41;57.63;;;22.67;;
75038;SDS011;63609;49.992;14.512;2022-11-20T04:06:10;54.03;;;22.20;;
75038;SDS011;63609;49.992;14.512;2022-11-20T04:08:41;55.60;;;22.88;;
75038;SDS011;63609;49.992;14.512;2022-11-20T04:11:12;63.38;;;26.00;;
75038;SDS011;63609;49.992;14.512;2022-11-20T04:13:47;56.05;;;22.63;;
75038;SDS011;63609;49.992;14.512;2022-11-20T04:16:16;52.38;;;22.20;;
75038;SDS011;63609;49.992;14.512;2022-11-20T04:18:44;60.92;;;24.58;;
75038;SDS011;63609;49.992;14.512;2022-11-20T04:21:11;61.10;;;25.08;;
75038;SDS011;63609;49.992;14.512;2022-11-20T04:23:38;58.33;;;23.73;;
75038;SDS011;63609;49.992;14.512;2022-11-20T04:26:08;56.60;;;23.23;;
75038;SDS011;63609;49.992;14.512;2022-11-20T04:28:37;56.33;;;23.10;;
75038;SDS011;63609;49.992;14.512;2022-11-20T04:31:05;58.83;;;22.38;;
75038;SDS011;63609;49.992;14.512;2022-11-20T04:33:34;58.05;;;22.50;;
75038;SDS011;63609;49.992;14.512;2022-11-20T04:36:06;60.85;;;22.05;;
75038;SDS011;63609;49.992;14.512;2022-11-20T04:38:36;48.38;;;20.95;;
75038;SDS011;63609;49.992;14.512;2022-11-20T04:41:05;54.67;;;21.38;;
75038;SDS011;63609;49.992;14.512;2022-11-20T04:43:33;49.55;;;21.80;;
75038;SDS011;63609;49.992;14.512;2022-11-20T04:46:01;54.88;;;20.85;;
75038;SDS011;63609;49.992;14.512;2022-11-20T04:48:28;57.47;;;22.58;;
75038;SDS011;63609;49.992;14.512;2022-11-20T04:50:55;57.63;;;22.60;;
75038;SDS011;63609;49.992;14.512;2022-11-20T04:53:23;56.30;;;21.50;;
75038;SDS011;63609;49.992;14.512;2022-11-20T04:56:02;61.42;;;24.02;;
75038;SDS011;63609;49.992;14.512;2022-11-20T04:58:30;56.80;;;23.08;;
75038;SDS011;63609;49.992;14.512;2022-11-20T05:01:04;61.50;;;23.55;;
75038;SDS011;63609;49.992;14.512;2022-11-20T05:03:33;65.50;;;24.98;;
75038;SDS011;63609;49.992;14.512;2022-11-20T05:06:06;57.75;;;22.55;;
75038;SDS011;63609;49.992;14.512;2022-11-20T05:08:34;56.20;;;20.88;;
75038;SDS011;63609;49.992;14.512;2022-11-20T05:11:06;59.95;;;21.63;;
75038;SDS011;63609;49.992;14.512;2022-11-20T05:13:34;65.10;;;23.13;;
75038;SDS011;63609;49.992;14.512;2022-11-20T05:16:02;52.40;;;21.33;;
75038;SDS011;63609;49.992;14.512;2022-11-20T05:18:31;56.60;;;21.75;;
75038;SDS011;63609;49.992;14.512;2022-11-20T05:23:25;53.83;;;20.92;;
75038;SDS011;63609;49.992;14.512;2022-11-20T05:25:54;56.08;;;23.40;;
75038;SDS011;63609;49.992;14.512;2022-11-20T05:28:25;59.05;;;21.52;;
75038;SDS011;63609;49.992;14.512;2022-11-20T05:30:53;53.88;;;21.10;;
75038;SDS011;63609;49.992;14.512;2022-11-20T05:35:48;55.40;;;22.17;;
75038;SDS011;63609;49.992;14.512;2022-11-20T05:38:15;54.88;;;21.63;;
75038;SDS011;63609;49.992;14.512;2022-11-20T05:40:42;60.55;;;22.40;;
75038;SDS011;63609;49.992;14.512;2022-11-20T05:43:08;60.08;;;23.08;;
75038;SDS011;63609;49.992;14.512;2022-11-20T05:45:35;56.45;;;22.92;;
75038;SDS011;63609;49.992;14.512;2022-11-20T05:48:02;64.18;;;23.70;;
75038;SDS011;63609;49.992;14.512;2022-11-20T05:50:29;59.35;;;22.50;;
75038;SDS011;63609;49.992;14.512;2022-11-20T05:55:26;56.05;;;21.02;;
75038;SDS011;63609;49.992;14.512;2022-11-20T05:57:54;51.53;;;22.20;;
75038;SDS011;63609;49.992;14.512;2022-11-20T06:00:21;56.60;;;21.15;;
75038;SDS011;63609;49.992;14.512;2022-11-20T06:02:48;56.75;;;22.20;;
75038;SDS011;63609;49.992;14.512;2022-11-20T06:07:42;55.15;;;20.42;;
75038;SDS011;63609;49.992;14.512;2022-11-20T06:10:15;52.92;;;20.98;;
75038;SDS011;63609;49.992;14.512;2022-11-20T06:12:43;54.13;;;21.25;;
75038;SDS011;63609;49.992;14.512;2022-11-20T06:15:10;50.42;;;19.10;;
75038;SDS011;63609;49.992;14.512;2022-11-20T06:20:29;55.40;;;20.77;;
75038;SDS011;63609;49.992;14.512;2022-11-20T06:23:03;57.50;;;22.17;;
75038;SDS011;63609;49.992;14.512;2022-11-20T06:25:29;59.97;;;22.15;;
75038;SDS011;63609;49.992;14.512;2022-11-20T06:27:56;57.85;;;23.00;;
75038;SDS011;63609;49.992;14.512;2022-11-20T06:30:23;52.55;;;21.27;;
75038;SDS011;63609;49.992;14.512;2022-11-20T06:32:50;51.55;;;20.33;;
75038;SDS011;63609;49.992;14.512;2022-11-20T06:37:44;65.90;;;24.85;;
75038;SDS011;63609;49.992;14.512;2022-11-20T06:40:11;52.35;;;20.63;;
75038;SDS011;63609;49.992;14.512;2022-11-20T06:42:38;49.40;;;19.98;;
75038;SDS011;63609;49.992;14.512;2022-11-20T06:45:04;53.28;;;19.67;;
75038;SDS011;63609;49.992;14.512;2022-11-20T06:47:32;49.50;;;19.83;;
75038;SDS011;63609;49.992;14.512;2022-11-20T06:49:59;50.63;;;20.75;;
75038;SDS011;63609;49.992;14.512;2022-11-20T06:52:29;36.22;;;13.88;;
75038;SDS011;63609;49.992;14.512;2022-11-20T06:54:56;45.53;;;19.27;;
75038;SDS011;63609;49.992;14.512;2022-11-20T06:59:53;62.88;;;21.70;;
75038;SDS011;63609;49.992;14.512;2022-11-20T07:02:20;40.58;;;16.60;;
75038;SDS011;63609;49.992;14.512;2022-11-20T07:04:47;44.78;;;17.08;;
75038;SDS011;63609;49.992;14.512;2022-11-20T07:07:14;39.88;;;15.50;;
75038;SDS011;63609;49.992;14.512;2022-11-20T07:09:41;47.08;;;17.02;;
75038;SDS011;63609;49.992;14.512;2022-11-20T07:12:08;40.83;;;16.95;;
75038;SDS011;63609;49.992;14.512;2022-11-20T07:14:34;53.17;;;21.38;;
75038;SDS011;63609;49.992;14.512;2022-11-20T07:19:29;74.78;;;23.23;;
75038;SDS011;63609;49.992;14.512;2022-11-20T07:21:56;45.72;;;18.13;;
75038;SDS011;63609;49.992;14.512;2022-11-20T07:26:49;32.65;;;13.77;;
75038;SDS011;63609;49.992;14.512;2022-11-20T07:29:16;54.58;;;20.77;;
75038;SDS011;63609;49.992;14.512;2022-11-20T07:31:43;50.78;;;19.52;;
75038;SDS011;63609;49.992;14.512;2022-11-20T07:34:10;47.25;;;17.58;;
75038;SDS011;63609;49.992;14.512;2022-11-20T07:36:37;50.88;;;19.13;;
75038;SDS011;63609;49.992;14.512;2022-11-20T07:39:03;42.50;;;17.60;;
75038;SDS011;63609;49.992;14.512;2022-11-20T07:41:30;43.75;;;18.00;;
75038;SDS011;63609;49.992;14.512;2022-11-20T07:43:57;47.45;;;17.50;;
75038;SDS011;63609;49.992;14.512;2022-11-20T07:46:24;38.97;;;15.40;;
75038;SDS011;63609;49.992;14.512;2022-11-20T07:48:51;43.53;;;16.88;;
75038;SDS011;63609;49.992;14.512;2022-11-20T07:51:19;42.70;;;15.73;;
75038;SDS011;63609;49.992;14.512;2022-11-20T07:53:48;37.65;;;15.35;;
75038;SDS011;63609;49.992;14.512;2022-11-20T07:56:20;37.60;;;15.60;;
75038;SDS011;63609;49.992;14.512;2022-11-20T07:58:46;66.45;;;23.67;;
75038;SDS011;63609;49.992;14.512;2022-11-20T08:01:13;44.78;;;18.70;;
75038;SDS011;63609;49.992;14.512;2022-11-20T08:03:40;47.50;;;17.88;;
75038;SDS011;63609;49.992;14.512;2022-11-20T08:06:07;48.25;;;17.30;;
75038;SDS011;63609;49.992;14.512;2022-11-20T08:08:34;44.25;;;18.73;;
75038;SDS011;63609;49.992;14.512;2022-11-20T08:11:07;50.05;;;18.70;;
75038;SDS011;63609;49.992;14.512;2022-11-20T08:13:53;49.72;;;18.45;;
75038;SDS011;63609;49.992;14.512;2022-11-20T08:16:39;44.08;;;18.35;;
75038;SDS011;63609;49.992;14.512;2022-11-20T08:19:06;42.53;;;19.10;;
75038;SDS011;63609;49.992;14.512;2022-11-20T08:21:34;46.53;;;19.02;;
75038;SDS011;63609;49.992;14.512;2022-11-20T08:24:03;44.67;;;17.42;;
75038;SDS011;63609;49.992;14.512;2022-11-20T08:26:31;42.47;;;17.58;;
75038;SDS011;63609;49.992;14.512;2022-11-20T08:28:58;46.40;;;19.52;;
75038;SDS011;63609;49.992;14.512;2022-11-20T08:31:25;51.38;;;20.73;;
75038;SDS011;63609;49.992;14.512;2022-11-20T08:33:56;50.25;;;20.13;;
75038;SDS011;63609;49.992;14.512;2022-11-20T08:36:23;48.38;;;20.48;;
75038;SDS011;63609;49.992;14.512;2022-11-20T08:38:51;63.40;;;25.98;;
75038;SDS011;63609;49.992;14.512;2022-11-20T08:41:20;45.38;;;19.00;;
75038;SDS011;63609;49.992;14.512;2022-11-20T08:44:05;50.13;;;20.10;;
75038;SDS011;63609;49.992;14.512;2022-11-20T08:46:35;45.38;;;19.55;;
75038;SDS011;63609;49.992;14.512;2022-11-20T08:49:04;41.88;;;18.95;;
75038;SDS011;63609;49.992;14.512;2022-11-20T08:51:34;52.50;;;20.35;;
75038;SDS011;63609;49.992;14.512;2022-11-20T08:54:02;54.03;;;22.20;;
75038;SDS011;63609;49.992;14.512;2022-11-20T08:56:29;49.83;;;20.15;;
75038;SDS011;63609;49.992;14.512;2022-11-20T08:58:56;49.92;;;21.10;;
75038;SDS011;63609;49.992;14.512;2022-11-20T09:01:43;47.50;;;19.15;;
75038;SDS011;63609;49.992;14.512;2022-11-20T09:04:10;49.75;;;19.90;;
75038;SDS011;63609;49.992;14.512;2022-11-20T09:06:38;48.03;;;20.10;;
75038;SDS011;63609;49.992;14.512;2022-11-20T09:09:04;42.97;;;19.83;;
75038;SDS011;63609;49.992;14.512;2022-11-20T09:11:32;51.38;;;20.33;;
75038;SDS011;63609;49.992;14.512;2022-11-20T09:14:00;52.78;;;20.85;;
75038;SDS011;63609;49.992;14.512;2022-11-20T09:16:29;52.00;;;20.38;;
75038;SDS011;63609;49.992;14.512;2022-11-20T09:18:55;52.42;;;21.45;;
75038;SDS011;63609;49.992;14.512;2022-11-20T09:21:42;53.78;;;20.70;;
75038;SDS011;63609;49.992;14.512;2022-11-20T09:24:09;53.58;;;20.90;;
75038;SDS011;63609;49.992;14.512;2022-11-20T09:26:36;51.90;;;20.20;;
75038;SDS011;63609;49.992;14.512;2022-11-20T09:29:02;55.97;;;21.77;;
75038;SDS011;63609;49.992;14.512;2022-11-20T09:31:30;51.65;;;21.02;;
75038;SDS011;63609;49.992;14.512;2022-11-20T09:33:56;52.58;;;21.92;;
75038;SDS011;63609;49.992;14.512;2022-11-20T09:38:50;45.88;;;19.58;;
75038;SDS011;63609;49.992;14.512;2022-11-20T09:47:08;51.30;;;19.77;;
75038;SDS011;63609;49.992;14.512;2022-11-20T09:55:01;54.13;;;20.92;;
75038;SDS011;63609;49.992;14.512;2022-11-20T09:57:37;55.63;;;22.65;;
75038;SDS011;63609;49.992;14.512;2022-11-20T10:00:10;50.85;;;21.42;;
75038;SDS011;63609;49.992;14.512;2022-11-20T10:02:52;54.38;;;21.60;;
75038;SDS011;63609;49.992;14.512;2022-11-20T10:05:40;48.28;;;20.10;;
75038;SDS011;63609;49.992;14.512;2022-11-20T10:08:23;50.92;;;21.23;;
75038;SDS011;63609;49.992;14.512;2022-11-20T10:11:00;48.45;;;20.65;;
75038;SDS011;63609;49.992;14.512;2022-11-20T10:13:39;47.72;;;20.85;;
75038;SDS011;63609;49.992;14.512;2022-11-20T10:26:55;51.70;;;21.48;;
75038;SDS011;63609;49.992;14.512;2022-11-20T10:29:34;53.88;;;21.38;;
75038;SDS011;63609;49.992;14.512;2022-11-20T10:32:04;49.13;;;20.25;;
75038;SDS011;63609;49.992;14.512;2022-11-20T10:35:20;47.10;;;20.98;;
75038;SDS011;63609;49.992;14.512;2022-11-20T10:37:31;51.85;;;21.90;;
75038;SDS011;63609;49.992;14.512;2022-11-20T10:40:22;58.13;;;22.75;;
75038;SDS011;63609;49.992;14.512;2022-11-20T10:46:57;54.03;;;23.35;;
75038;SDS011;63609;49.992;14.512;2022-11-20T10:49:46;59.53;;;25.10;;
75038;SDS011;63609;49.992;14.512;2022-11-20T10:52:25;56.97;;;21.55;;
75038;SDS011;63609;49.992;14.512;2022-11-20T10:55:32;51.92;;;22.27;;
75038;SDS011;63609;49.992;14.512;2022-11-20T11:01:20;54.90;;;22.08;;
75038;SDS011;63609;49.992;14.512;2022-11-20T11:03:51;52.72;;;22.75;;
75038;SDS011;63609;49.992;14.512;2022-11-20T11:08:51;58.65;;;25.30;;
75038;SDS011;63609;49.992;14.512;2022-11-20T11:11:28;64.47;;;25.92;;
75038;SDS011;63609;49.992;14.512;2022-11-20T11:14:07;64.15;;;24.95;;
75038;SDS011;63609;49.992;14.512;2022-11-20T11:16:52;59.78;;;25.45;;
75038;SDS011;63609;49.992;14.512;2022-11-20T11:19:24;47.78;;;18.83;;
75038;SDS011;63609;49.992;14.512;2022-11-20T11:21:55;57.45;;;23.30;;
75038;SDS011;63609;49.992;14.512;2022-11-20T11:24:24;49.30;;;18.70;;
75038;SDS011;63609;49.992;14.512;2022-11-20T11:27:12;31.25;;;11.80;;
75038;SDS011;63609;49.992;14.512;2022-11-20T11:29:45;44.85;;;15.57;;
75038;SDS011;63609;49.992;14.512;2022-11-20T11:32:17;45.38;;;14.93;;
75038;SDS011;63609;49.992;14.512;2022-11-20T11:37:33;27.27;;;12.15;;
75038;SDS011;63609;49.992;14.512;2022-11-20T11:42:56;25.80;;;10.60;;
75038;SDS011;63609;49.992;14.512;2022-11-20T11:45:25;33.03;;;11.50;;
75038;SDS011;63609;49.992;14.512;2022-11-20T11:47:56;34.25;;;11.02;;
75038;SDS011;63609;49.992;14.512;2022-11-20T11:50:26;41.75;;;16.33;;
75038;SDS011;63609;49.992;14.512;2022-11-20T12:00:56;27.95;;;10.32;;
75038;SDS011;63609;49.992;14.512;2022-11-20T12:03:29;28.67;;;11.45;;
75038;SDS011;63609;49.992;14.512;2022-11-20T12:06:05;30.83;;;10.27;;
75038;SDS011;63609;49.992;14.512;2022-11-20T12:09:21;25.02;;;10.93;;
75038;SDS011;63609;49.992;14.512;2022-11-20T12:14:27;37.85;;;13.02;;
75038;SDS011;63609;49.992;14.512;2022-11-20T12:17:01;41.55;;;14.82;;
75038;SDS011;63609;49.992;14.512;2022-11-20T12:19:29;37.00;;;13.63;;
75038;SDS011;63609;49.992;14.512;2022-11-20T12:22:02;44.38;;;16.80;;
75038;SDS011;63609;49.992;14.512;2022-11-20T12:30:09;41.78;;;15.40;;
75038;SDS011;63609;49.992;14.512;2022-11-20T12:48:08;41.80;;;18.23;;
75038;SDS011;63609;49.992;14.512;2022-11-20T12:50:38;38.30;;;15.48;;
75038;SDS011;63609;49.992;14.512;2022-11-20T12:53:43;42.97;;;16.60;;
75038;SDS011;63609;49.992;14.512;2022-11-20T13:08:35;45.25;;;15.93;;
75038;SDS011;63609;49.992;14.512;2022-11-20T13:13:53;36.10;;;14.48;;
75038;SDS011;63609;49.992;14.512;2022-11-20T13:16:44;42.17;;;16.38;;
75038;SDS011;63609;49.992;14.512;2022-11-20T13:19:34;41.60;;;15.85;;
75038;SDS011;63609;49.992;14.512;2022-11-20T13:22:01;37.70;;;15.45;;
75038;SDS011;63609;49.992;14.512;2022-11-20T13:24:29;37.83;;;16.02;;
75038;SDS011;63609;49.992;14.512;2022-11-20T13:29:30;42.13;;;16.52;;
75038;SDS011;63609;49.992;14.512;2022-11-20T13:32:13;41.90;;;15.95;;
75038;SDS011;63609;49.992;14.512;2022-11-20T13:37:30;42.50;;;15.45;;
75038;SDS011;63609;49.992;14.512;2022-11-20T13:43:01;42.38;;;15.02;;
75038;SDS011;63609;49.992;14.512;2022-11-20T13:45:33;40.20;;;16.13;;
75038;SDS011;63609;49.992;14.512;2022-11-20T13:48:02;39.95;;;15.45;;
75038;SDS011;63609;49.992;14.512;2022-11-20T13:56:14;42.13;;;18.10;;
75038;SDS011;63609;49.992;14.512;2022-11-20T14:01:40;52.08;;;20.27;;
75038;SDS011;63609;49.992;14.512;2022-11-20T14:04:15;62.25;;;24.95;;
75038;SDS011;63609;49.992;14.512;2022-11-20T14:06:46;51.65;;;21.42;;
75038;SDS011;63609;49.992;14.512;2022-11-20T14:09:26;54.08;;;21.58;;
75038;SDS011;63609;49.992;14.512;2022-11-20T14:11:58;55.67;;;20.80;;
75038;SDS011;63609;49.992;14.512;2022-11-20T14:14:30;47.22;;;20.50;;
75038;SDS011;63609;49.992;14.512;2022-11-20T14:17:17;57.65;;;23.48;;
75038;SDS011;63609;49.992;14.512;2022-11-20T14:19:51;55.22;;;21.83;;
75038;SDS011;63609;49.992;14.512;2022-11-20T14:22:21;51.95;;;20.33;;
75038;SDS011;63609;49.992;14.512;2022-11-20T14:27:39;57.10;;;20.30;;
75038;SDS011;63609;49.992;14.512;2022-11-20T14:30:12;58.60;;;22.73;;
75038;SDS011;63609;49.992;14.512;2022-11-20T14:32:42;59.72;;;24.00;;
75038;SDS011;63609;49.992;14.512;2022-11-20T14:35:27;61.30;;;25.70;;
75038;SDS011;63609;49.992;14.512;2022-11-20T14:38:01;63.70;;;26.75;;
75038;SDS011;63609;49.992;14.512;2022-11-20T14:40:30;66.88;;;25.77;;
75038;SDS011;63609;49.992;14.512;2022-11-20T14:42:59;58.70;;;22.67;;
75038;SDS011;63609;49.992;14.512;2022-11-20T14:45:26;65.45;;;27.08;;
75038;SDS011;63609;49.992;14.512;2022-11-20T14:47:55;61.58;;;25.38;;
75038;SDS011;63609;49.992;14.512;2022-11-20T14:50:24;70.55;;;25.88;;
75038;SDS011;63609;49.992;14.512;2022-11-20T14:52:55;54.50;;;23.55;;
75038;SDS011;63609;49.992;14.512;2022-11-20T14:58:01;57.58;;;23.92;;
75038;SDS011;63609;49.992;14.512;2022-11-20T15:00:30;62.70;;;24.65;;
75038;SDS011;63609;49.992;14.512;2022-11-20T15:02:58;63.85;;;26.10;;
75038;SDS011;63609;49.992;14.512;2022-11-20T15:05:43;66.13;;;26.08;;
75038;SDS011;63609;49.992;14.512;2022-11-20T15:08:13;64.95;;;25.10;;
75038;SDS011;63609;49.992;14.512;2022-11-20T15:10:47;66.88;;;27.40;;
75038;SDS011;63609;49.992;14.512;2022-11-20T15:13:17;70.95;;;29.00;;
75038;SDS011;63609;49.992;14.512;2022-11-20T15:15:49;65.55;;;28.48;;
75038;SDS011;63609;49.992;14.512;2022-11-20T15:18:19;70.30;;;28.02;;
75038;SDS011;63609;49.992;14.512;2022-11-20T15:20:49;68.05;;;28.55;;
75038;SDS011;63609;49.992;14.512;2022-11-20T15:23:16;66.45;;;28.73;;
75038;SDS011;63609;49.992;14.512;2022-11-20T15:25:45;63.03;;;28.23;;
75038;SDS011;63609;49.992;14.512;2022-11-20T15:30:49;69.70;;;26.52;;
75038;SDS011;63609;49.992;14.512;2022-11-20T15:33:16;70.40;;;29.05;;
75038;SDS011;63609;49.992;14.512;2022-11-20T15:35:45;78.75;;;31.75;;
75038;SDS011;63609;49.992;14.512;2022-11-20T15:38:11;64.07;;;27.50;;
75038;SDS011;63609;49.992;14.512;2022-11-20T15:43:05;61.00;;;25.33;;
75038;SDS011;63609;49.992;14.512;2022-11-20T15:45:49;73.20;;;32.90;;
75038;SDS011;63609;49.992;14.512;2022-11-20T15:48:19;78.28;;;32.10;;
75038;SDS011;63609;49.992;14.512;2022-11-20T15:50:51;67.88;;;27.73;;
75038;SDS011;63609;49.992;14.512;2022-11-20T15:53:22;65.30;;;27.83;;
75038;SDS011;63609;49.992;14.512;2022-11-20T15:55:54;67.55;;;26.95;;
75038;SDS011;63609;49.992;14.512;2022-11-20T16:00:49;63.33;;;25.75;;
75038;SDS011;63609;49.992;14.512;2022-11-20T16:05:43;72.95;;;29.23;;
75038;SDS011;63609;49.992;14.512;2022-11-20T16:08:11;65.72;;;27.30;;
75038;SDS011;63609;49.992;14.512;2022-11-20T16:10:46;64.40;;;24.85;;
75038;SDS011;63609;49.992;14.512;2022-11-20T16:13:13;67.63;;;24.63;;
75038;SDS011;63609;49.992;14.512;2022-11-20T16:16:02;60.92;;;24.92;;
75038;SDS011;63609;49.992;14.512;2022-11-20T16:18:31;69.70;;;26.23;;
75038;SDS011;63609;49.992;14.512;2022-11-20T16:20:58;76.72;;;29.30;;
75038;SDS011;63609;49.992;14.512;2022-11-20T16:23:25;67.63;;;26.58;;
75038;SDS011;63609;49.992;14.512;2022-11-20T16:25:52;69.07;;;27.88;;
75038;SDS011;63609;49.992;14.512;2022-11-20T16:28:18;67.47;;;26.85;;
75038;SDS011;63609;49.992;14.512;2022-11-20T16:30:45;62.65;;;25.92;;
75038;SDS011;63609;49.992;14.512;2022-11-20T16:33:14;63.67;;;25.98;;
75038;SDS011;63609;49.992;14.512;2022-11-20T16:35:41;59.55;;;24.08;;
75038;SDS011;63609;49.992;14.512;2022-11-20T16:38:09;67.03;;;25.00;;
75038;SDS011;63609;49.992;14.512;2022-11-20T16:43:06;55.35;;;20.20;;
75038;SDS011;63609;49.992;14.512;2022-11-20T16:45:44;49.15;;;21.45;;
75038;SDS011;63609;49.992;14.512;2022-11-20T16:48:12;50.60;;;20.15;;
75038;SDS011;63609;49.992;14.512;2022-11-20T16:53:18;48.78;;;20.15;;
75038;SDS011;63609;49.992;14.512;2022-11-20T16:55:46;44.03;;;18.10;;
75038;SDS011;63609;49.992;14.512;2022-11-20T16:58:14;43.63;;;18.90;;
75038;SDS011;63609;49.992;14.512;2022-11-20T17:00:40;47.53;;;18.85;;
75038;SDS011;63609;49.992;14.512;2022-11-20T17:03:16;50.97;;;18.73;;
75038;SDS011;63609;49.992;14.512;2022-11-20T17:05:44;47.80;;;18.50;;
75038;SDS011;63609;49.992;14.512;2022-11-20T17:08:11;47.17;;;19.45;;
75038;SDS011;63609;49.992;14.512;2022-11-20T17:10:38;49.17;;;19.13;;
75038;SDS011;63609;49.992;14.512;2022-11-20T17:13:04;52.05;;;20.98;;
75038;SDS011;63609;49.992;14.512;2022-11-20T17:15:31;50.58;;;21.75;;
75038;SDS011;63609;49.992;14.512;2022-11-20T17:17:58;53.30;;;21.35;;
75038;SDS011;63609;49.992;14.512;2022-11-20T17:20:25;57.03;;;22.05;;